Terminal Aerodrome Forecast
Issued by NWS Blacksburg, VA

Current Version | Previous Version | Text Only | Print | Product List | Glossary Off
Versions: 1 2 3 4 5 6 7 8 9 10 11 12 13 14 15 16 17 18

000
FTUS41 KRNK 251721
TAFBLF
TAF
KBLF 251721Z 2518/2618 25004KT P6SM SCT040 BKN150
     FM251900 26006KT P6SM VCTS BKN050CB
     FM260100 27004KT P6SM SCT050 BKN080
     FM260400 VRB03KT P6SM VCSH BKN030
     FM261300 27007KT P6SM SCT035 BKN100=

USA.gov is the U.S. government's official web portal to all federal, state and local government web resources and services.